createdAt,value
2023-05-14T00:02:00.970Z,71.23
2023-05-14T00:05:05.918Z,71.58
2023-05-14T00:08:08.273Z,72.04
2023-05-14T00:11:12.899Z,72.45
2023-05-14T00:14:16.254Z,72.33
2023-05-14T00:17:22.028Z,73.44
2023-05-14T00:20:24.398Z,72.11
2023-05-14T00:23:26.877Z,72.75
2023-05-14T00:26:32.867Z,72.85
2023-05-14T00:29:39.710Z,72.48
2023-05-14T00:32:42.214Z,72.57
2023-05-14T00:35:44.535Z,72.81
2023-05-14T00:38:49.081Z,71.79
2023-05-14T00:41:53.900Z,71.46
2023-05-14T00:44:56.130Z,71.26
2023-05-14T00:48:01.038Z,70.91
2023-05-14T00:51:03.767Z,72.53
2023-05-14T00:54:14.745Z,71.80
2023-05-14T00:57:19.786Z,71.34
2023-05-14T01:00:22.607Z,71.20
2023-05-14T01:03:30.700Z,71.57
2023-05-14T01:06:52.041Z,71.41
2023-05-14T01:10:23.277Z,71.66
2023-05-14T01:14:10.356Z,70.93
2023-05-14T01:17:14.607Z,70.98
2023-05-14T01:20:17.251Z,71.60
2023-05-14T01:23:19.483Z,71.52
2023-05-14T01:26:24.148Z,71.89
2023-05-14T01:29:31.722Z,71.32
2023-05-14T01:32:34.199Z,71.94
2023-05-14T01:35:37.315Z,72.35
2023-05-14T01:38:41.699Z,73.54
2023-05-14T01:41:45.548Z,73.50
2023-05-14T01:44:50.240Z,73.39
2023-05-14T01:47:54.122Z,73.23
2023-05-14T01:50:56.649Z,72.89
2023-05-14T01:53:58.975Z,72.77
2023-05-14T01:57:01.393Z,73.32
2023-05-14T02:00:04.428Z,73.38
2023-05-14T02:03:16.080Z,72.85
2023-05-14T02:06:20.788Z,73.10
2023-05-14T02:09:24.581Z,72.82
2023-05-14T02:12:26.785Z,73.25
2023-05-14T02:15:31.517Z,73.42
2023-05-14T02:18:36.152Z,72.25
2023-05-14T02:21:39.239Z,72.83
2023-05-14T02:24:44.945Z,71.86
2023-05-14T02:27:49.539Z,72.42
2023-05-14T02:31:01.192Z,72.46
2023-05-14T02:34:09.348Z,71.99
2023-05-14T02:37:13.901Z,72.53
2023-05-14T02:40:18.503Z,72.63
2023-05-14T02:43:25.389Z,71.84
2023-05-14T02:46:33.774Z,72.61
2023-05-14T02:49:40.213Z,72.07
2023-05-14T02:52:42.519Z,72.49
2023-05-14T02:55:44.854Z,72.74
2023-05-14T02:58:51.519Z,72.43
2023-05-14T03:01:56.013Z,71.71
2023-05-14T03:04:58.690Z,71.89
2023-05-14T03:08:03.402Z,71.75
2023-05-14T03:11:06.920Z,71.47
2023-05-14T03:14:11.783Z,71.85
2023-05-14T03:17:14.233Z,72.29
2023-05-14T03:20:18.842Z,72.11
2023-05-14T03:23:23.896Z,71.89
2023-05-14T03:26:28.604Z,71.81
2023-05-14T03:29:33.084Z,71.37
2023-05-14T03:32:35.429Z,71.82
2023-05-14T03:35:40.002Z,72.32
2023-05-14T03:38:46.986Z,71.51
2023-05-14T03:41:57.012Z,70.94
2023-05-14T03:45:04.699Z,71.98
2023-05-14T03:48:07.387Z,71.68
2023-05-14T03:51:09.816Z,71.63
2023-05-14T03:54:14.377Z,70.47
2023-05-14T03:57:19.391Z,70.72
2023-05-14T04:00:22.000Z,70.88
2023-05-14T04:03:32.231Z,69.41
2023-05-14T04:06:34.776Z,70.69
2023-05-14T04:09:37.701Z,70.02
2023-05-14T04:12:40.097Z,70.57
2023-05-14T04:15:42.904Z,70.34
2023-05-14T04:18:47.656Z,70.66
2023-05-14T04:21:50.693Z,70.49
2023-05-14T04:24:53.263Z,70.29
2023-05-14T04:27:58.617Z,70.83
2023-05-14T04:31:05.605Z,71.65
2023-05-14T04:34:07.936Z,70.33
2023-05-14T04:37:12.861Z,71.74
2023-05-14T04:40:18.118Z,70.69
2023-05-14T04:43:25.060Z,71.01
2023-05-14T04:46:30.213Z,71.02
2023-05-14T04:49:34.835Z,69.93
2023-05-14T04:52:37.785Z,69.35
2023-05-14T04:55:40.011Z,70.08
2023-05-14T04:58:42.548Z,70.70
2023-05-14T05:01:47.197Z,70.33
2023-05-14T05:04:49.574Z,69.76
2023-05-14T05:07:52.018Z,70.12
2023-05-14T05:10:54.246Z,69.83
2023-05-14T05:13:56.519Z,70.04
2023-05-14T05:16:58.855Z,69.76
2023-05-14T05:20:01.137Z,69.80
2023-05-14T05:23:08.388Z,69.50
2023-05-14T05:26:12.271Z,70.38
2023-05-14T05:29:14.493Z,69.33
2023-05-14T05:32:16.810Z,70.15
2023-05-14T05:35:19.143Z,69.50
2023-05-14T05:38:21.357Z,69.69
2023-05-14T05:41:23.655Z,70.02
2023-05-14T05:44:30.756Z,68.89
2023-05-14T05:47:33.130Z,70.24
2023-05-14T05:50:35.519Z,69.48
2023-05-14T05:53:37.874Z,70.41
2023-05-14T05:56:40.303Z,69.69
2023-05-14T05:59:42.645Z,69.74
2023-05-14T06:02:45.072Z,69.95
2023-05-14T06:05:48.409Z,70.08
2023-05-14T06:08:51.109Z,69.69
2023-05-14T06:11:58.897Z,70.99
2023-05-14T06:15:01.331Z,70.77
2023-05-14T06:18:03.720Z,70.94
2023-05-14T06:21:08.605Z,71.11
2023-05-14T06:24:16.457Z,71.23
2023-05-14T06:27:19.026Z,71.25
2023-05-14T06:30:21.593Z,71.45
2023-05-14T06:33:30.663Z,71.93
2023-05-14T06:36:35.501Z,71.61
2023-05-14T06:39:38.400Z,72.53
2023-05-14T06:42:40.801Z,71.13
2023-05-14T06:45:48.982Z,71.84
2023-05-14T06:48:53.619Z,72.88
2023-05-14T06:51:55.928Z,72.37
2023-05-14T06:54:59.383Z,72.48
2023-05-14T06:58:01.880Z,72.16
2023-05-14T07:01:04.600Z,71.87
2023-05-14T07:04:06.944Z,71.09
2023-05-14T07:07:10.598Z,72.87
2023-05-14T07:10:12.857Z,71.98
2023-05-14T07:13:19.838Z,70.88
2023-05-14T07:16:22.335Z,71.47
2023-05-14T07:19:28.746Z,71.94
2023-05-14T07:22:33.527Z,71.41
2023-05-14T07:25:35.931Z,70.43
2023-05-14T07:28:40.654Z,71.21
2023-05-14T07:31:45.471Z,70.68
2023-05-14T07:34:47.810Z,71.35
2023-05-14T07:37:52.980Z,69.80
2023-05-14T07:40:57.621Z,69.98
2023-05-14T07:44:01.956Z,69.89
2023-05-14T07:47:08.761Z,70.58
2023-05-14T07:50:11.700Z,70.99
2023-05-14T07:53:16.433Z,68.98
2023-05-14T07:56:21.414Z,69.59
2023-05-14T07:59:26.166Z,69.55
2023-05-14T08:02:33.422Z,69.45
2023-05-14T08:05:38.095Z,70.17
2023-05-14T08:08:40.472Z,71.08
2023-05-14T08:11:45.493Z,71.35
2023-05-14T08:14:47.928Z,71.23
2023-05-14T08:17:52.502Z,72.81
2023-05-14T08:20:54.770Z,73.01
2023-05-14T08:23:59.306Z,72.80
2023-05-14T08:27:03.959Z,72.67
2023-05-14T08:30:09.126Z,73.43
2023-05-14T08:33:13.924Z,73.15
2023-05-14T08:36:16.194Z,73.31
2023-05-14T08:39:18.401Z,74.20
2023-05-14T08:42:27.023Z,73.68
2023-05-14T08:45:34.437Z,74.14
2023-05-14T08:48:42.253Z,74.59
2023-05-14T08:51:49.801Z,74.80
2023-05-14T08:54:54.110Z,72.62
2023-05-14T08:57:56.686Z,73.81
2023-05-14T09:00:59.538Z,73.59
2023-05-14T09:04:07.127Z,74.41
2023-05-14T09:07:09.540Z,74.47
2023-05-14T09:10:15.429Z,74.02
2023-05-14T09:13:20.171Z,74.38
2023-05-14T09:16:25.945Z,74.61
2023-05-14T09:19:31.058Z,73.69
2023-05-14T09:22:34.905Z,74.29
2023-05-14T09:25:40.156Z,73.66
2023-05-14T09:28:48.117Z,73.33
2023-05-14T09:31:51.999Z,73.83
2023-05-14T09:34:54.319Z,73.38
2023-05-14T09:37:56.569Z,73.37
2023-05-14T09:41:01.378Z,72.81
2023-05-14T09:44:05.365Z,73.49
2023-05-14T09:47:08.927Z,73.45
2023-05-14T09:50:11.394Z,72.77
2023-05-14T09:53:17.771Z,72.88
2023-05-14T09:56:24.659Z,73.70
2023-05-14T09:59:26.893Z,72.65
2023-05-14T10:02:41.367Z,73.21
2023-05-14T10:05:49.168Z,72.92
2023-05-14T10:09:01.394Z,72.90
2023-05-14T10:12:06.821Z,74.15
2023-05-14T10:15:22.831Z,73.55
2023-05-14T10:18:29.893Z,73.99
2023-05-14T10:21:35.720Z,73.27
2023-05-14T10:24:45.996Z,73.69
2023-05-14T10:27:48.842Z,73.13
2023-05-14T10:30:51.238Z,74.16
2023-05-14T10:33:54.706Z,74.25
2023-05-14T10:37:02.159Z,72.75
2023-05-14T10:40:08.439Z,72.48
2023-05-14T10:43:14.099Z,73.80
2023-05-14T10:46:18.669Z,73.71
2023-05-14T10:49:36.166Z,73.61
2023-05-14T10:52:46.505Z,71.41
2023-05-14T10:55:54.781Z,71.86
2023-05-14T10:59:02.356Z,72.45
2023-05-14T11:02:22.975Z,72.59
2023-05-14T11:05:27.520Z,72.07
2023-05-14T11:08:31.275Z,72.54
2023-05-14T11:11:36.089Z,72.72
2023-05-14T11:14:44.334Z,73.34
2023-05-14T11:17:50.948Z,73.47
2023-05-14T11:20:53.326Z,74.52
2023-05-14T11:23:57.191Z,74.29
2023-05-14T11:27:01.919Z,75.35
2023-05-14T11:30:26.969Z,75.15
2023-05-14T11:33:31.445Z,74.69
2023-05-14T11:36:39.073Z,74.45
2023-05-14T11:39:49.585Z,74.61
2023-05-14T11:42:54.341Z,75.56
2023-05-14T11:45:56.773Z,73.74
2023-05-14T11:48:59.244Z,75.44
2023-05-14T11:52:03.524Z,73.70
2023-05-14T11:55:12.703Z,75.58
2023-05-14T11:58:17.022Z,75.21
2023-05-14T12:01:21.499Z,75.09
2023-05-14T12:04:26.187Z,76.15
2023-05-14T12:07:34.298Z,77.02
2023-05-14T12:10:42.794Z,76.90
2023-05-14T12:13:47.297Z,76.45
2023-05-14T12:16:52.858Z,76.04
2023-05-14T12:19:57.066Z,76.74
2023-05-14T12:22:59.153Z,76.67
2023-05-14T12:26:08.741Z,76.83
2023-05-14T12:29:13.108Z,76.02
2023-05-14T12:32:15.656Z,78.40
2023-05-14T12:35:17.986Z,77.69
2023-05-14T12:38:25.053Z,78.56
2023-05-14T12:41:28.296Z,79.19
2023-05-14T12:44:30.623Z,79.45
2023-05-14T12:47:33.210Z,79.32
2023-05-14T12:50:37.695Z,79.72
2023-05-14T12:53:42.377Z,80.37
2023-05-14T12:56:47.312Z,80.92
2023-05-14T12:59:49.606Z,81.58
2023-05-14T13:02:53.096Z,82.08
2023-05-14T13:05:57.553Z,82.82
2023-05-14T13:09:03.028Z,82.19
2023-05-14T13:12:08.064Z,83.35
2023-05-14T13:15:13.718Z,82.81
2023-05-14T13:18:20.963Z,84.04
2023-05-14T13:21:23.274Z,83.95
2023-05-14T13:24:29.303Z,83.48
2023-05-14T13:27:31.744Z,84.27
2023-05-14T13:30:36.591Z,84.84
2023-05-14T13:33:42.960Z,85.05
2023-05-14T13:36:49.300Z,84.27
2023-05-14T13:39:54.049Z,84.30
2023-05-14T13:42:58.800Z,84.56
2023-05-14T13:46:04.836Z,85.38
2023-05-14T13:49:09.716Z,86.56
2023-05-14T13:52:12.113Z,86.03
2023-05-14T13:55:19.309Z,86.00
2023-05-14T13:58:22.060Z,85.76
2023-05-14T14:01:24.522Z,87.00
2023-05-14T14:04:29.122Z,86.88
2023-05-14T14:07:31.517Z,86.50
2023-05-14T14:10:33.847Z,87.07
2023-05-14T14:13:38.353Z,86.68
2023-05-14T14:16:40.961Z,87.85
2023-05-14T14:19:46.910Z,87.70
2023-05-14T14:22:49.227Z,87.73
2023-05-14T14:25:54.009Z,87.54
2023-05-14T14:28:58.738Z,87.81
2023-05-14T14:32:01.156Z,88.79
2023-05-14T14:35:03.715Z,88.73
2023-05-14T14:38:06.022Z,88.66
2023-05-14T14:41:10.563Z,88.52
2023-05-14T14:44:12.924Z,88.33
2023-05-14T14:47:17.523Z,88.44
2023-05-14T14:50:19.851Z,88.54
2023-05-14T14:53:25.078Z,88.53
2023-05-14T14:56:30.147Z,88.29
2023-05-14T14:59:32.479Z,89.13
2023-05-14T15:02:34.969Z,88.79
2023-05-14T15:05:37.773Z,89.06
2023-05-14T15:08:44.723Z,88.36
2023-05-14T15:11:47.195Z,88.51
2023-05-14T15:14:49.441Z,89.76
2023-05-14T15:17:54.521Z,89.05
2023-05-14T15:20:59.360Z,89.08
2023-05-14T15:24:03.988Z,89.13
2023-05-14T15:27:06.380Z,89.29
2023-05-14T15:30:11.548Z,88.88
2023-05-14T15:33:21.352Z,89.19
2023-05-14T15:36:25.947Z,88.73
2023-05-14T15:39:29.593Z,89.51
2023-05-14T15:42:32.460Z,89.33
2023-05-14T15:45:34.683Z,89.90
2023-05-14T15:48:37.412Z,89.14
2023-05-14T15:51:39.709Z,89.26
2023-05-14T15:54:46.464Z,89.37
2023-05-14T15:57:48.791Z,89.65
2023-05-14T16:00:51.009Z,89.22
2023-05-14T16:03:55.802Z,89.45
2023-05-14T16:07:05.474Z,89.40
2023-05-14T16:10:09.227Z,89.18
2023-05-14T16:13:13.957Z,89.33
2023-05-14T16:16:18.012Z,88.45
2023-05-14T16:19:22.244Z,89.39
2023-05-14T16:22:24.580Z,88.54
2023-05-14T16:25:26.914Z,88.89
2023-05-14T16:28:29.436Z,88.15
2023-05-14T16:31:36.274Z,88.63
2023-05-14T16:34:38.694Z,88.58
2023-05-14T16:37:43.385Z,88.48
2023-05-14T16:40:45.765Z,89.07
2023-05-14T16:43:48.550Z,89.29
2023-05-14T16:46:51.226Z,88.62
2023-05-14T16:49:55.872Z,87.97
2023-05-14T16:52:58.147Z,88.87
2023-05-14T16:56:03.635Z,88.14
2023-05-14T16:59:07.520Z,89.24
2023-05-14T17:02:10.090Z,88.46
2023-05-14T17:05:14.817Z,88.63
2023-05-14T17:08:19.561Z,88.44
2023-05-14T17:11:22.002Z,88.29
2023-05-14T17:14:26.859Z,89.18
2023-05-14T17:17:29.124Z,88.54
2023-05-14T17:20:36.096Z,87.99
2023-05-14T17:23:42.416Z,88.67
2023-05-14T17:26:47.399Z,89.11
2023-05-14T17:29:52.518Z,89.75
2023-05-14T17:32:54.804Z,89.22
2023-05-14T17:35:57.161Z,89.48
2023-05-14T17:38:59.358Z,89.29
2023-05-14T17:42:03.537Z,89.27
2023-05-14T17:45:06.417Z,90.02
2023-05-14T17:48:11.238Z,89.78
2023-05-14T17:51:18.392Z,89.72
2023-05-14T17:54:23.651Z,89.71
2023-05-14T17:57:30.709Z,89.45
2023-05-14T18:00:37.782Z,89.38
2023-05-14T18:03:42.824Z,89.37
2023-05-14T18:06:46.409Z,89.41
2023-05-14T18:09:48.883Z,88.81
2023-05-14T18:12:53.462Z,89.35
2023-05-14T18:15:57.968Z,89.34
2023-05-14T18:19:03.186Z,89.92
2023-05-14T18:22:08.015Z,88.57
2023-05-14T18:25:10.476Z,88.18
2023-05-14T18:28:12.921Z,89.41
2023-05-14T18:31:15.308Z,89.40
2023-05-14T18:34:23.653Z,89.53
2023-05-14T18:37:27.070Z,89.36
2023-05-14T18:40:29.357Z,90.67
2023-05-14T18:43:31.908Z,90.85
2023-05-14T18:46:34.295Z,89.94
2023-05-14T18:49:38.733Z,89.44
2023-05-14T18:52:41.226Z,89.76
2023-05-14T18:55:45.919Z,89.55
2023-05-14T18:58:48.173Z,88.90
2023-05-14T19:01:50.464Z,89.41
2023-05-14T19:04:53.352Z,89.96
2023-05-14T19:07:58.223Z,89.05
2023-05-14T19:11:02.952Z,89.73
2023-05-14T19:14:09.078Z,89.88
2023-05-14T19:17:15.186Z,90.02
2023-05-14T19:20:19.761Z,89.63
2023-05-14T19:23:22.186Z,90.00
2023-05-14T19:26:26.776Z,89.54
2023-05-14T19:29:29.218Z,89.81
2023-05-14T19:32:37.645Z,90.15
2023-05-14T19:35:44.603Z,90.41
2023-05-14T19:38:47.458Z,90.38
2023-05-14T19:41:49.727Z,90.85
2023-05-14T19:44:51.974Z,89.78
2023-05-14T19:47:56.707Z,90.42
2023-05-14T19:51:04.887Z,90.35
2023-05-14T19:54:07.141Z,90.79
2023-05-14T19:57:09.592Z,90.15
2023-05-14T20:00:12.263Z,90.26
2023-05-14T20:03:17.004Z,90.32
2023-05-14T20:06:21.622Z,90.39
2023-05-14T20:09:26.172Z,90.10
2023-05-14T20:12:28.437Z,90.02
2023-05-14T20:15:33.037Z,90.98
2023-05-14T20:18:35.375Z,90.77
2023-05-14T20:21:37.730Z,90.64
2023-05-14T20:24:41.144Z,91.41
2023-05-14T20:27:45.627Z,91.43
2023-05-14T20:30:50.133Z,91.31
2023-05-14T20:33:54.889Z,91.63
2023-05-14T20:36:58.163Z,91.44
2023-05-14T20:40:04.953Z,91.62
2023-05-14T20:43:07.409Z,91.02
2023-05-14T20:46:09.806Z,91.03
2023-05-14T20:49:14.351Z,91.30
2023-05-14T20:52:19.144Z,91.94
2023-05-14T20:55:24.205Z,91.22
2023-05-14T20:58:26.906Z,91.17
2023-05-14T21:01:31.713Z,90.85
2023-05-14T21:04:36.748Z,90.42
2023-05-14T21:07:41.327Z,90.40
2023-05-14T21:10:45.829Z,89.70
2023-05-14T21:13:49.123Z,88.87
2023-05-14T21:16:51.521Z,89.69
2023-05-14T21:19:53.703Z,89.98
2023-05-14T21:22:55.929Z,89.92
2023-05-14T21:26:00.684Z,90.32
2023-05-14T21:29:06.172Z,90.19
2023-05-14T21:32:11.298Z,89.57
2023-05-14T21:35:13.737Z,89.88
2023-05-14T21:38:16.104Z,90.00
2023-05-14T21:41:18.464Z,90.07
2023-05-14T21:44:22.051Z,90.76
2023-05-14T21:47:24.555Z,90.57
2023-05-14T21:50:32.174Z,90.37
2023-05-14T21:53:34.796Z,91.05
2023-05-14T21:56:37.278Z,90.17
2023-05-14T21:59:42.519Z,90.31
2023-05-14T22:02:47.316Z,90.72
2023-05-14T22:05:57.302Z,91.01
2023-05-14T22:08:59.524Z,90.18
2023-05-14T22:12:01.855Z,89.70
2023-05-14T22:15:12.314Z,89.78
2023-05-14T22:18:19.443Z,89.55
2023-05-14T22:21:21.693Z,90.43
2023-05-14T22:24:23.904Z,89.97
2023-05-14T22:27:28.977Z,89.16
2023-05-14T22:30:31.235Z,90.46
2023-05-14T22:33:36.579Z,90.09
2023-05-14T22:36:39.063Z,89.94
2023-05-14T22:39:43.879Z,89.70
2023-05-14T22:42:46.221Z,89.37
2023-05-14T22:45:48.614Z,89.81
2023-05-14T22:48:55.630Z,89.51
2023-05-14T22:51:57.982Z,90.14
2023-05-14T22:55:03.473Z,90.74
2023-05-14T22:58:05.689Z,90.59
2023-05-14T23:01:10.126Z,90.75
2023-05-14T23:04:12.359Z,91.21
2023-05-14T23:07:15.321Z,90.14
2023-05-14T23:10:19.846Z,89.98
2023-05-14T23:13:26.360Z,90.74
2023-05-14T23:16:31.843Z,90.59
2023-05-14T23:19:36.966Z,90.33
2023-05-14T23:22:40.146Z,91.19
2023-05-14T23:25:42.489Z,91.03
2023-05-14T23:28:44.807Z,91.16
2023-05-14T23:31:51.889Z,91.09
2023-05-14T23:34:54.306Z,91.25
2023-05-14T23:37:56.719Z,91.46
2023-05-14T23:41:01.360Z,91.35
2023-05-14T23:44:03.789Z,91.08
2023-05-14T23:47:08.829Z,91.34
2023-05-14T23:50:11.230Z,91.51
2023-05-14T23:53:13.658Z,91.46
2023-05-14T23:56:16.627Z,91.19
2023-05-14T23:59:21.511Z,90.93
